sensor_id;sensor_type;location;lat;lon;timestamp;temperature;humidity
16160;DHT22;8185;57.818;15.224;2023-07-09T00:00:13;12.50;99.90
16160;DHT22;8185;57.818;15.224;2023-07-09T00:02:41;12.50;99.90
16160;DHT22;8185;57.818;15.224;2023-07-09T00:05:11;12.40;99.90
16160;DHT22;8185;57.818;15.224;2023-07-09T00:07:42;12.50;99.90
16160;DHT22;8185;57.818;15.224;2023-07-09T00:10:16;12.40;99.90
16160;DHT22;8185;57.818;15.224;2023-07-09T00:12:44;12.30;99.90
16160;DHT22;8185;57.818;15.224;2023-07-09T00:15:12;12.30;99.90
16160;DHT22;8185;57.818;15.224;2023-07-09T00:17:41;12.20;99.90
16160;DHT22;8185;57.818;15.224;2023-07-09T00:20:12;12.30;99.90
16160;DHT22;8185;57.818;15.224;2023-07-09T00:22:43;12.40;99.90
16160;DHT22;8185;57.818;15.224;2023-07-09T00:25:18;12.30;99.90
16160;DHT22;8185;57.818;15.224;2023-07-09T00:27:46;12.30;99.90
16160;DHT22;8185;57.818;15.224;2023-07-09T00:30:18;12.10;99.90
16160;DHT22;8185;57.818;15.224;2023-07-09T00:32:46;12.10;99.90
16160;DHT22;8185;57.818;15.224;2023-07-09T00:35:13;12.00;99.90
16160;DHT22;8185;57.818;15.224;2023-07-09T00:37:43;11.90;99.90
16160;DHT22;8185;57.818;15.224;2023-07-09T00:40:14;11.90;99.90
16160;DHT22;8185;57.818;15.224;2023-07-09T00:42:45;11.90;99.90
16160;DHT22;8185;57.818;15.224;2023-07-09T00:45:21;12.00;99.90
16160;DHT22;8185;57.818;15.224;2023-07-09T00:47:53;12.00;99.90
16160;DHT22;8185;57.818;15.224;2023-07-09T00:50:30;12.00;99.90
16160;DHT22;8185;57.818;15.224;2023-07-09T00:53:03;11.90;99.90
16160;DHT22;8185;57.818;15.224;2023-07-09T00:55:38;11.80;99.90
16160;DHT22;8185;57.818;15.224;2023-07-09T00:58:13;11.80;99.90
16160;DHT22;8185;57.818;15.224;2023-07-09T01:00:44;11.80;99.90
16160;DHT22;8185;57.818;15.224;2023-07-09T01:03:21;11.80;99.90
16160;DHT22;8185;57.818;15.224;2023-07-09T01:05:53;11.80;99.90
16160;DHT22;8185;57.818;15.224;2023-07-09T01:08:22;11.80;99.90
16160;DHT22;8185;57.818;15.224;2023-07-09T01:10:49;11.70;99.90
16160;DHT22;8185;57.818;15.224;2023-07-09T01:13:17;11.80;99.90
16160;DHT22;8185;57.818;15.224;2023-07-09T01:15:45;11.70;99.90
16160;DHT22;8185;57.818;15.224;2023-07-09T01:18:13;11.60;99.90
16160;DHT22;8185;57.818;15.224;2023-07-09T01:20:41;11.70;99.90
16160;DHT22;8185;57.818;15.224;2023-07-09T01:23:10;11.60;99.90
16160;DHT22;8185;57.818;15.224;2023-07-09T01:25:41;11.60;99.90
16160;DHT22;8185;57.818;15.224;2023-07-09T01:28:09;11.50;99.90
16160;DHT22;8185;57.818;15.224;2023-07-09T01:30:39;11.50;99.90
16160;DHT22;8185;57.818;15.224;2023-07-09T01:33:07;11.50;99.90
16160;DHT22;8185;57.818;15.224;2023-07-09T01:35:37;11.60;99.90
16160;DHT22;8185;57.818;15.224;2023-07-09T01:38:10;11.50;99.90
16160;DHT22;8185;57.818;15.224;2023-07-09T01:40:37;11.50;99.90
16160;DHT22;8185;57.818;15.224;2023-07-09T01:43:04;11.50;99.90
16160;DHT22;8185;57.818;15.224;2023-07-09T01:45:52;11.40;99.90
16160;DHT22;8185;57.818;15.224;2023-07-09T01:48:24;11.50;99.90
16160;DHT22;8185;57.818;15.224;2023-07-09T01:50:52;11.50;99.90
16160;DHT22;8185;57.818;15.224;2023-07-09T01:53:23;11.40;99.90
16160;DHT22;8185;57.818;15.224;2023-07-09T01:55:52;11.40;99.90
16160;DHT22;8185;57.818;15.224;2023-07-09T01:58:20;11.30;99.90
16160;DHT22;8185;57.818;15.224;2023-07-09T02:00:50;11.30;99.90
16160;DHT22;8185;57.818;15.224;2023-07-09T02:03:17;11.20;99.90
16160;DHT22;8185;57.818;15.224;2023-07-09T02:05:44;11.30;99.90
16160;DHT22;8185;57.818;15.224;2023-07-09T02:08:12;11.20;99.90
16160;DHT22;8185;57.818;15.224;2023-07-09T02:10:43;11.10;99.90
16160;DHT22;8185;57.818;15.224;2023-07-09T02:13:11;11.10;99.90
16160;DHT22;8185;57.818;15.224;2023-07-09T02:15:38;11.10;99.90
16160;DHT22;8185;57.818;15.224;2023-07-09T02:18:09;11.00;99.90
16160;DHT22;8185;57.818;15.224;2023-07-09T02:20:36;11.00;99.90
16160;DHT22;8185;57.818;15.224;2023-07-09T02:23:03;11.00;99.90
16160;DHT22;8185;57.818;15.224;2023-07-09T02:25:30;11.00;99.90
16160;DHT22;8185;57.818;15.224;2023-07-09T02:27:59;11.00;99.90
16160;DHT22;8185;57.818;15.224;2023-07-09T02:30:26;11.00;99.90
16160;DHT22;8185;57.818;15.224;2023-07-09T02:32:53;11.00;99.90
16160;DHT22;8185;57.818;15.224;2023-07-09T02:35:20;11.00;99.90
16160;DHT22;8185;57.818;15.224;2023-07-09T02:37:48;11.00;99.90
16160;DHT22;8185;57.818;15.224;2023-07-09T02:40:15;11.00;99.90
16160;DHT22;8185;57.818;15.224;2023-07-09T02:42:43;11.00;99.90
16160;DHT22;8185;57.818;15.224;2023-07-09T02:45:12;11.00;99.90
16160;DHT22;8185;57.818;15.224;2023-07-09T02:47:39;11.00;99.90
16160;DHT22;8185;57.818;15.224;2023-07-09T02:50:06;11.00;99.90
16160;DHT22;8185;57.818;15.224;2023-07-09T02:52:33;11.00;99.90
16160;DHT22;8185;57.818;15.224;2023-07-09T02:55:00;11.10;99.90
16160;DHT22;8185;57.818;15.224;2023-07-09T02:57:28;11.30;99.90
16160;DHT22;8185;57.818;15.224;2023-07-09T02:59:55;11.30;99.90
16160;DHT22;8185;57.818;15.224;2023-07-09T03:02:23;11.30;99.90
16160;DHT22;8185;57.818;15.224;2023-07-09T03:04:50;11.30;99.90
16160;DHT22;8185;57.818;15.224;2023-07-09T03:07:17;11.30;99.90
16160;DHT22;8185;57.818;15.224;2023-07-09T03:09:45;11.30;99.90
16160;DHT22;8185;57.818;15.224;2023-07-09T03:12:12;11.40;99.90
16160;DHT22;8185;57.818;15.224;2023-07-09T03:14:39;11.60;99.90
16160;DHT22;8185;57.818;15.224;2023-07-09T03:17:06;11.60;99.90
16160;DHT22;8185;57.818;15.224;2023-07-09T03:19:35;11.50;99.90
16160;DHT22;8185;57.818;15.224;2023-07-09T03:22:02;11.60;99.90
16160;DHT22;8185;57.818;15.224;2023-07-09T03:24:29;11.60;99.90
16160;DHT22;8185;57.818;15.224;2023-07-09T03:26:57;11.70;99.90
16160;DHT22;8185;57.818;15.224;2023-07-09T03:29:24;11.70;99.90
16160;DHT22;8185;57.818;15.224;2023-07-09T03:31:51;11.90;99.90
16160;DHT22;8185;57.818;15.224;2023-07-09T03:34:18;11.90;99.90
16160;DHT22;8185;57.818;15.224;2023-07-09T03:36:47;12.00;99.90
16160;DHT22;8185;57.818;15.224;2023-07-09T03:39:14;12.10;99.90
16160;DHT22;8185;57.818;15.224;2023-07-09T03:41:41;12.10;99.90
16160;DHT22;8185;57.818;15.224;2023-07-09T03:44:08;12.20;99.90
16160;DHT22;8185;57.818;15.224;2023-07-09T03:46:35;12.30;99.90
16160;DHT22;8185;57.818;15.224;2023-07-09T03:49:02;12.40;99.90
16160;DHT22;8185;57.818;15.224;2023-07-09T03:51:29;12.50;99.90
16160;DHT22;8185;57.818;15.224;2023-07-09T03:53:58;12.70;99.90
16160;DHT22;8185;57.818;15.224;2023-07-09T03:56:25;12.80;99.90
16160;DHT22;8185;57.818;15.224;2023-07-09T03:58:52;12.80;99.90
16160;DHT22;8185;57.818;15.224;2023-07-09T04:01:19;12.90;99.90
16160;DHT22;8185;57.818;15.224;2023-07-09T04:03:47;12.90;99.90
16160;DHT22;8185;57.818;15.224;2023-07-09T04:06:14;13.00;99.90
16160;DHT22;8185;57.818;15.224;2023-07-09T04:08:42;13.20;99.90
16160;DHT22;8185;57.818;15.224;2023-07-09T04:11:10;13.40;99.90
16160;DHT22;8185;57.818;15.224;2023-07-09T04:13:37;13.50;99.90
16160;DHT22;8185;57.818;15.224;2023-07-09T04:16:05;13.70;99.90
16160;DHT22;8185;57.818;15.224;2023-07-09T04:18:32;13.90;99.90
16160;DHT22;8185;57.818;15.224;2023-07-09T04:20:59;14.00;99.90
16160;DHT22;8185;57.818;15.224;2023-07-09T04:23:26;14.20;99.90
16160;DHT22;8185;57.818;15.224;2023-07-09T04:25:53;14.30;99.90
16160;DHT22;8185;57.818;15.224;2023-07-09T04:28:22;14.40;99.90
16160;DHT22;8185;57.818;15.224;2023-07-09T04:30:50;14.50;99.90
16160;DHT22;8185;57.818;15.224;2023-07-09T04:33:18;14.70;99.90
16160;DHT22;8185;57.818;15.224;2023-07-09T04:35:46;14.80;99.90
16160;DHT22;8185;57.818;15.224;2023-07-09T04:38:13;14.90;99.90
16160;DHT22;8185;57.818;15.224;2023-07-09T04:40:40;15.00;99.90
16160;DHT22;8185;57.818;15.224;2023-07-09T04:43:08;15.10;99.90
16160;DHT22;8185;57.818;15.224;2023-07-09T04:45:36;15.20;99.90
16160;DHT22;8185;57.818;15.224;2023-07-09T04:48:04;15.30;99.90
16160;DHT22;8185;57.818;15.224;2023-07-09T04:50:31;15.40;99.90
16160;DHT22;8185;57.818;15.224;2023-07-09T04:52:58;15.60;99.90
16160;DHT22;8185;57.818;15.224;2023-07-09T04:55:26;15.70;99.90
16160;DHT22;8185;57.818;15.224;2023-07-09T04:57:53;15.80;99.90
16160;DHT22;8185;57.818;15.224;2023-07-09T05:00:20;16.00;99.90
16160;DHT22;8185;57.818;15.224;2023-07-09T05:02:49;16.00;99.90
16160;DHT22;8185;57.818;15.224;2023-07-09T05:05:16;16.20;99.90
16160;DHT22;8185;57.818;15.224;2023-07-09T05:07:43;16.30;99.90
16160;DHT22;8185;57.818;15.224;2023-07-09T05:10:10;16.40;99.90
16160;DHT22;8185;57.818;15.224;2023-07-09T05:12:47;16.60;99.90
16160;DHT22;8185;57.818;15.224;2023-07-09T05:15:16;16.70;99.90
16160;DHT22;8185;57.818;15.224;2023-07-09T05:17:44;16.80;99.90
16160;DHT22;8185;57.818;15.224;2023-07-09T05:20:13;17.00;99.90
16160;DHT22;8185;57.818;15.224;2023-07-09T05:22:41;17.10;99.90
16160;DHT22;8185;57.818;15.224;2023-07-09T05:25:09;17.30;99.90
16160;DHT22;8185;57.818;15.224;2023-07-09T05:27:36;17.40;99.90
16160;DHT22;8185;57.818;15.224;2023-07-09T05:30:04;17.50;99.90
16160;DHT22;8185;57.818;15.224;2023-07-09T05:32:31;17.50;99.90
16160;DHT22;8185;57.818;15.224;2023-07-09T05:34:58;17.60;99.90
16160;DHT22;8185;57.818;15.224;2023-07-09T05:37:27;17.70;99.90
16160;DHT22;8185;57.818;15.224;2023-07-09T05:39:54;17.80;99.90
16160;DHT22;8185;57.818;15.224;2023-07-09T05:42:21;17.80;99.90
16160;DHT22;8185;57.818;15.224;2023-07-09T05:44:48;17.90;99.90
16160;DHT22;8185;57.818;15.224;2023-07-09T05:47:15;18.00;99.90
16160;DHT22;8185;57.818;15.224;2023-07-09T05:49:43;18.10;99.90
16160;DHT22;8185;57.818;15.224;2023-07-09T05:52:11;18.20;99.90
16160;DHT22;8185;57.818;15.224;2023-07-09T05:54:40;18.30;99.90
16160;DHT22;8185;57.818;15.224;2023-07-09T05:57:07;18.40;99.90
16160;DHT22;8185;57.818;15.224;2023-07-09T05:59:34;18.50;99.90
16160;DHT22;8185;57.818;15.224;2023-07-09T06:02:01;18.60;99.90
16160;DHT22;8185;57.818;15.224;2023-07-09T06:04:29;18.60;99.90
16160;DHT22;8185;57.818;15.224;2023-07-09T06:06:56;18.80;99.90
16160;DHT22;8185;57.818;15.224;2023-07-09T06:09:23;18.90;99.90
16160;DHT22;8185;57.818;15.224;2023-07-09T06:11:52;19.10;99.90
16160;DHT22;8185;57.818;15.224;2023-07-09T06:14:19;19.20;99.90
16160;DHT22;8185;57.818;15.224;2023-07-09T06:16:46;19.30;99.90
16160;DHT22;8185;57.818;15.224;2023-07-09T06:19:13;19.50;99.90
16160;DHT22;8185;57.818;15.224;2023-07-09T06:21:40;19.60;99.90
16160;DHT22;8185;57.818;15.224;2023-07-09T06:24:08;19.60;99.90
16160;DHT22;8185;57.818;15.224;2023-07-09T06:26:35;19.80;99.90
16160;DHT22;8185;57.818;15.224;2023-07-09T06:29:04;19.80;99.90
16160;DHT22;8185;57.818;15.224;2023-07-09T06:31:31;20.00;99.90
16160;DHT22;8185;57.818;15.224;2023-07-09T06:33:58;20.20;99.90
16160;DHT22;8185;57.818;15.224;2023-07-09T06:36:25;20.20;99.90
16160;DHT22;8185;57.818;15.224;2023-07-09T06:38:52;20.30;99.90
16160;DHT22;8185;57.818;15.224;2023-07-09T06:41:19;20.50;99.90
16160;DHT22;8185;57.818;15.224;2023-07-09T06:43:47;20.70;99.90
16160;DHT22;8185;57.818;15.224;2023-07-09T06:46:17;20.70;99.90
16160;DHT22;8185;57.818;15.224;2023-07-09T06:48:45;20.90;99.90
16160;DHT22;8185;57.818;15.224;2023-07-09T06:51:13;21.00;99.90
16160;DHT22;8185;57.818;15.224;2023-07-09T06:53:40;21.00;99.90
16160;DHT22;8185;57.818;15.224;2023-07-09T06:56:08;21.20;99.90
16160;DHT22;8185;57.818;15.224;2023-07-09T06:58:36;21.30;99.90
16160;DHT22;8185;57.818;15.224;2023-07-09T07:01:04;21.40;99.90
16160;DHT22;8185;57.818;15.224;2023-07-09T07:03:33;21.60;99.90
16160;DHT22;8185;57.818;15.224;2023-07-09T07:06:01;21.70;99.90
16160;DHT22;8185;57.818;15.224;2023-07-09T07:08:28;21.80;99.90
16160;DHT22;8185;57.818;15.224;2023-07-09T07:10:57;21.80;99.90
16160;DHT22;8185;57.818;15.224;2023-07-09T07:13:28;21.90;99.90
16160;DHT22;8185;57.818;15.224;2023-07-09T07:15:55;21.90;99.90
16160;DHT22;8185;57.818;15.224;2023-07-09T07:18:22;22.10;99.90
16160;DHT22;8185;57.818;15.224;2023-07-09T07:20:51;22.30;99.90
16160;DHT22;8185;57.818;15.224;2023-07-09T07:23:18;22.40;99.90
16160;DHT22;8185;57.818;15.224;2023-07-09T07:25:46;22.40;99.90
16160;DHT22;8185;57.818;15.224;2023-07-09T07:28:16;22.40;99.90
16160;DHT22;8185;57.818;15.224;2023-07-09T07:30:44;22.50;99.90
16160;DHT22;8185;57.818;15.224;2023-07-09T07:33:14;22.60;99.90
16160;DHT22;8185;57.818;15.224;2023-07-09T07:35:46;22.60;99.90
16160;DHT22;8185;57.818;15.224;2023-07-09T07:38:14;22.70;99.90
16160;DHT22;8185;57.818;15.224;2023-07-09T07:40:45;22.80;99.90
16160;DHT22;8185;57.818;15.224;2023-07-09T07:43:13;23.00;99.90
16160;DHT22;8185;57.818;15.224;2023-07-09T07:45:40;23.10;99.90
16160;DHT22;8185;57.818;15.224;2023-07-09T07:48:07;23.00;99.90
16160;DHT22;8185;57.818;15.224;2023-07-09T07:50:35;23.00;99.90
16160;DHT22;8185;57.818;15.224;2023-07-09T07:53:04;23.10;99.90
16160;DHT22;8185;57.818;15.224;2023-07-09T07:55:33;23.20;99.90
16160;DHT22;8185;57.818;15.224;2023-07-09T07:58:02;23.20;99.90
16160;DHT22;8185;57.818;15.224;2023-07-09T08:00:30;23.20;99.90
16160;DHT22;8185;57.818;15.224;2023-07-09T08:02:57;23.20;99.90
16160;DHT22;8185;57.818;15.224;2023-07-09T08:05:24;23.30;99.90
16160;DHT22;8185;57.818;15.224;2023-07-09T08:07:51;23.40;99.90
16160;DHT22;8185;57.818;15.224;2023-07-09T08:10:18;23.50;99.90
16160;DHT22;8185;57.818;15.224;2023-07-09T08:12:47;23.80;99.90
16160;DHT22;8185;57.818;15.224;2023-07-09T08:15:14;23.80;99.90
16160;DHT22;8185;57.818;15.224;2023-07-09T08:17:43;23.90;99.90
16160;DHT22;8185;57.818;15.224;2023-07-09T08:20:10;23.80;99.90
16160;DHT22;8185;57.818;15.224;2023-07-09T08:22:37;23.90;99.90
16160;DHT22;8185;57.818;15.224;2023-07-09T08:25:06;24.50;99.90
16160;DHT22;8185;57.818;15.224;2023-07-09T08:27:33;24.60;99.90
16160;DHT22;8185;57.818;15.224;2023-07-09T08:30:02;24.80;99.90
16160;DHT22;8185;57.818;15.224;2023-07-09T08:32:29;25.20;99.90
16160;DHT22;8185;57.818;15.224;2023-07-09T08:34:56;25.30;99.90
16160;DHT22;8185;57.818;15.224;2023-07-09T08:37:23;25.20;99.90
16160;DHT22;8185;57.818;15.224;2023-07-09T08:39:50;25.60;99.90
16160;DHT22;8185;57.818;15.224;2023-07-09T08:42:23;25.80;99.90
16160;DHT22;8185;57.818;15.224;2023-07-09T08:45:15;25.90;99.90
16160;DHT22;8185;57.818;15.224;2023-07-09T08:47:52;25.90;99.90
16160;DHT22;8185;57.818;15.224;2023-07-09T08:50:27;25.00;99.90
16160;DHT22;8185;57.818;15.224;2023-07-09T08:52:57;24.90;99.90
16160;DHT22;8185;57.818;15.224;2023-07-09T08:55:28;25.60;99.90
16160;DHT22;8185;57.818;15.224;2023-07-09T08:58:04;25.90;99.90
16160;DHT22;8185;57.818;15.224;2023-07-09T09:00:36;26.10;99.90
16160;DHT22;8185;57.818;15.224;2023-07-09T09:03:11;25.80;99.90
16160;DHT22;8185;57.818;15.224;2023-07-09T09:05:43;25.30;99.90
16160;DHT22;8185;57.818;15.224;2023-07-09T09:08:22;25.30;99.90
16160;DHT22;8185;57.818;15.224;2023-07-09T09:10:56;25.40;99.90
16160;DHT22;8185;57.818;15.224;2023-07-09T09:13:27;25.20;99.90
16160;DHT22;8185;57.818;15.224;2023-07-09T09:16:02;25.00;99.90
16160;DHT22;8185;57.818;15.224;2023-07-09T09:18:41;24.90;99.90
16160;DHT22;8185;57.818;15.224;2023-07-09T09:21:14;24.90;99.90
16160;DHT22;8185;57.818;15.224;2023-07-09T09:23:46;24.80;99.90
16160;DHT22;8185;57.818;15.224;2023-07-09T09:26:24;24.50;99.90
16160;DHT22;8185;57.818;15.224;2023-07-09T09:28:53;24.60;99.90
16160;DHT22;8185;57.818;15.224;2023-07-09T09:31:23;24.50;99.90
16160;DHT22;8185;57.818;15.224;2023-07-09T09:33:51;24.30;99.90
16160;DHT22;8185;57.818;15.224;2023-07-09T09:36:20;24.30;99.90
16160;DHT22;8185;57.818;15.224;2023-07-09T09:38:48;24.30;99.90
16160;DHT22;8185;57.818;15.224;2023-07-09T09:41:18;24.20;99.90
16160;DHT22;8185;57.818;15.224;2023-07-09T09:43:47;24.20;99.90
16160;DHT22;8185;57.818;15.224;2023-07-09T09:46:18;25.10;99.90
16160;DHT22;8185;57.818;15.224;2023-07-09T09:48:48;25.90;99.90
16160;DHT22;8185;57.818;15.224;2023-07-09T09:51:16;26.30;99.90
16160;DHT22;8185;57.818;15.224;2023-07-09T09:53:47;26.30;99.90
16160;DHT22;8185;57.818;15.224;2023-07-09T09:56:19;25.60;99.90
16160;DHT22;8185;57.818;15.224;2023-07-09T09:58:51;25.30;99.90
16160;DHT22;8185;57.818;15.224;2023-07-09T10:01:18;24.70;99.90
16160;DHT22;8185;57.818;15.224;2023-07-09T10:03:51;24.40;99.90
16160;DHT22;8185;57.818;15.224;2023-07-09T10:06:28;24.40;99.90
16160;DHT22;8185;57.818;15.224;2023-07-09T10:09:01;24.30;99.90
16160;DHT22;8185;57.818;15.224;2023-07-09T10:11:39;25.00;99.90
16160;DHT22;8185;57.818;15.224;2023-07-09T10:14:22;25.10;99.90
16160;DHT22;8185;57.818;15.224;2023-07-09T10:16:56;25.10;99.90
16160;DHT22;8185;57.818;15.224;2023-07-09T10:19:39;25.20;99.90
16160;DHT22;8185;57.818;15.224;2023-07-09T10:22:14;25.10;99.90
16160;DHT22;8185;57.818;15.224;2023-07-09T10:24:54;24.90;99.90
16160;DHT22;8185;57.818;15.224;2023-07-09T10:27:31;25.30;99.90
16160;DHT22;8185;57.818;15.224;2023-07-09T10:30:15;25.70;99.90
16160;DHT22;8185;57.818;15.224;2023-07-09T10:32:58;26.20;99.90
16160;DHT22;8185;57.818;15.224;2023-07-09T10:35:34;27.00;99.90
16160;DHT22;8185;57.818;15.224;2023-07-09T10:38:24;26.40;99.90
16160;DHT22;8185;57.818;15.224;2023-07-09T10:40:56;26.00;99.90
16160;DHT22;8185;57.818;15.224;2023-07-09T10:43:31;26.00;99.90
16160;DHT22;8185;57.818;15.224;2023-07-09T10:46:03;26.70;99.90
16160;DHT22;8185;57.818;15.224;2023-07-09T10:48:39;26.80;99.90
16160;DHT22;8185;57.818;15.224;2023-07-09T10:51:18;26.90;99.90
16160;DHT22;8185;57.818;15.224;2023-07-09T10:53:51;27.60;99.70
16160;DHT22;8185;57.818;15.224;2023-07-09T10:56:23;27.30;98.90
16160;DHT22;8185;57.818;15.224;2023-07-09T10:58:56;27.50;98.40
16160;DHT22;8185;57.818;15.224;2023-07-09T11:01:30;27.70;99.00
16160;DHT22;8185;57.818;15.224;2023-07-09T11:04:02;28.20;99.20
16160;DHT22;8185;57.818;15.224;2023-07-09T11:06:36;27.90;99.90
16160;DHT22;8185;57.818;15.224;2023-07-09T11:09:07;28.30;97.70
16160;DHT22;8185;57.818;15.224;2023-07-09T11:11:42;29.00;96.20
16160;DHT22;8185;57.818;15.224;2023-07-09T11:14:22;29.70;95.40
16160;DHT22;8185;57.818;15.224;2023-07-09T11:16:54;29.70;92.40
16160;DHT22;8185;57.818;15.224;2023-07-09T11:19:22;29.70;93.80
16160;DHT22;8185;57.818;15.224;2023-07-09T11:22:02;30.50;91.90
16160;DHT22;8185;57.818;15.224;2023-07-09T11:24:35;31.00;91.30
16160;DHT22;8185;57.818;15.224;2023-07-09T11:27:03;30.90;90.70
16160;DHT22;8185;57.818;15.224;2023-07-09T11:29:46;31.10;88.40
16160;DHT22;8185;57.818;15.224;2023-07-09T11:32:19;30.90;86.20
16160;DHT22;8185;57.818;15.224;2023-07-09T11:34:48;31.40;85.60
16160;DHT22;8185;57.818;15.224;2023-07-09T11:37:17;30.30;89.40
16160;DHT22;8185;57.818;15.224;2023-07-09T11:39:47;30.00;91.00
16160;DHT22;8185;57.818;15.224;2023-07-09T11:42:26;30.00;87.60
16160;DHT22;8185;57.818;15.224;2023-07-09T11:45:00;29.30;87.60
16160;DHT22;8185;57.818;15.224;2023-07-09T11:47:32;29.60;88.00
16160;DHT22;8185;57.818;15.224;2023-07-09T11:50:03;29.40;89.80
16160;DHT22;8185;57.818;15.224;2023-07-09T11:52:35;30.00;83.50
16160;DHT22;8185;57.818;15.224;2023-07-09T11:55:21;30.00;81.70
16160;DHT22;8185;57.818;15.224;2023-07-09T11:57:53;30.30;81.10
16160;DHT22;8185;57.818;15.224;2023-07-09T12:00:20;30.30;84.40
16160;DHT22;8185;57.818;15.224;2023-07-09T12:02:47;32.10;82.00
16160;DHT22;8185;57.818;15.224;2023-07-09T12:05:19;30.70;78.30
16160;DHT22;8185;57.818;15.224;2023-07-09T12:07:49;30.80;79.40
16160;DHT22;8185;57.818;15.224;2023-07-09T12:10:21;31.10;79.40
16160;DHT22;8185;57.818;15.224;2023-07-09T12:12:53;30.90;80.20
16160;DHT22;8185;57.818;15.224;2023-07-09T12:15:25;30.40;82.80
16160;DHT22;8185;57.818;15.224;2023-07-09T12:17:57;29.80;82.50
16160;DHT22;8185;57.818;15.224;2023-07-09T12:20:25;29.40;84.40
16160;DHT22;8185;57.818;15.224;2023-07-09T12:22:55;29.20;85.00
16160;DHT22;8185;57.818;15.224;2023-07-09T12:25:26;29.90;88.30
16160;DHT22;8185;57.818;15.224;2023-07-09T12:27:54;30.20;82.10
16160;DHT22;8185;57.818;15.224;2023-07-09T12:30:21;30.60;81.40
16160;DHT22;8185;57.818;15.224;2023-07-09T12:32:50;30.00;78.70
16160;DHT22;8185;57.818;15.224;2023-07-09T12:35:18;30.60;77.70
16160;DHT22;8185;57.818;15.224;2023-07-09T12:37:47;31.00;79.30
16160;DHT22;8185;57.818;15.224;2023-07-09T12:40:20;30.90;77.80
16160;DHT22;8185;57.818;15.224;2023-07-09T12:42:48;32.60;78.40
16160;DHT22;8185;57.818;15.224;2023-07-09T12:45:17;33.40;75.00
16160;DHT22;8185;57.818;15.224;2023-07-09T12:47:46;33.60;74.60
16160;DHT22;8185;57.818;15.224;2023-07-09T12:50:28;34.00;70.30
16160;DHT22;8185;57.818;15.224;2023-07-09T12:53:01;32.70;71.90
16160;DHT22;8185;57.818;15.224;2023-07-09T12:55:36;32.20;72.50
16160;DHT22;8185;57.818;15.224;2023-07-09T12:58:09;32.00;72.60
16160;DHT22;8185;57.818;15.224;2023-07-09T13:00:38;32.70;73.70
16160;DHT22;8185;57.818;15.224;2023-07-09T13:03:13;32.70;75.00
16160;DHT22;8185;57.818;15.224;2023-07-09T13:05:51;32.10;71.70
16160;DHT22;8185;57.818;15.224;2023-07-09T13:08:18;32.70;69.50
16160;DHT22;8185;57.818;15.224;2023-07-09T13:10:47;32.30;70.60
16160;DHT22;8185;57.818;15.224;2023-07-09T13:13:19;33.20;71.30
16160;DHT22;8185;57.818;15.224;2023-07-09T13:15:49;33.40;68.50
16160;DHT22;8185;57.818;15.224;2023-07-09T13:18:17;31.70;70.20
16160;DHT22;8185;57.818;15.224;2023-07-09T13:20:45;30.30;72.20
16160;DHT22;8185;57.818;15.224;2023-07-09T13:23:15;29.70;77.20
16160;DHT22;8185;57.818;15.224;2023-07-09T13:25:44;28.70;76.40
16160;DHT22;8185;57.818;15.224;2023-07-09T13:28:17;28.10;80.20
16160;DHT22;8185;57.818;15.224;2023-07-09T13:30:47;28.20;80.90
16160;DHT22;8185;57.818;15.224;2023-07-09T13:33:16;27.50;81.70
16160;DHT22;8185;57.818;15.224;2023-07-09T13:35:46;27.30;83.60
16160;DHT22;8185;57.818;15.224;2023-07-09T13:38:14;27.90;82.90
16160;DHT22;8185;57.818;15.224;2023-07-09T13:40:43;29.30;82.60
16160;DHT22;8185;57.818;15.224;2023-07-09T13:43:12;30.80;78.90
16160;DHT22;8185;57.818;15.224;2023-07-09T13:45:41;30.90;78.90
16160;DHT22;8185;57.818;15.224;2023-07-09T13:48:14;30.90;82.70
16160;DHT22;8185;57.818;15.224;2023-07-09T13:50:42;29.90;79.00
16160;DHT22;8185;57.818;15.224;2023-07-09T13:53:16;30.00;82.30
16160;DHT22;8185;57.818;15.224;2023-07-09T13:55:45;30.10;81.50
16160;DHT22;8185;57.818;15.224;2023-07-09T13:58:15;30.90;78.30
16160;DHT22;8185;57.818;15.224;2023-07-09T14:00:45;31.30;77.80
16160;DHT22;8185;57.818;15.224;2023-07-09T14:03:15;31.00;74.80
16160;DHT22;8185;57.818;15.224;2023-07-09T14:05:43;31.50;74.80
16160;DHT22;8185;57.818;15.224;2023-07-09T14:08:11;32.00;74.70
16160;DHT22;8185;57.818;15.224;2023-07-09T14:10:39;32.50;76.20
16160;DHT22;8185;57.818;15.224;2023-07-09T14:13:09;32.80;73.10
16160;DHT22;8185;57.818;15.224;2023-07-09T14:15:40;33.00;72.50
16160;DHT22;8185;57.818;15.224;2023-07-09T14:18:15;33.20;71.00
16160;DHT22;8185;57.818;15.224;2023-07-09T14:20:42;33.00;71.00
16160;DHT22;8185;57.818;15.224;2023-07-09T14:23:11;33.30;70.50
16160;DHT22;8185;57.818;15.224;2023-07-09T14:25:39;32.70;70.70
16160;DHT22;8185;57.818;15.224;2023-07-09T14:28:10;31.90;70.90
16160;DHT22;8185;57.818;15.224;2023-07-09T14:30:38;31.80;71.50
16160;DHT22;8185;57.818;15.224;2023-07-09T14:33:13;31.50;70.30
16160;DHT22;8185;57.818;15.224;2023-07-09T14:35:41;32.50;73.60
16160;DHT22;8185;57.818;15.224;2023-07-09T14:38:16;34.10;70.90
16160;DHT22;8185;57.818;15.224;2023-07-09T14:40:44;34.50;70.00
16160;DHT22;8185;57.818;15.224;2023-07-09T14:43:11;33.60;67.60
16160;DHT22;8185;57.818;15.224;2023-07-09T14:45:39;33.30;68.60
16160;DHT22;8185;57.818;15.224;2023-07-09T14:48:11;33.30;69.10
16160;DHT22;8185;57.818;15.224;2023-07-09T14:50:40;33.40;68.20
16160;DHT22;8185;57.818;15.224;2023-07-09T14:53:14;34.50;66.10
16160;DHT22;8185;57.818;15.224;2023-07-09T14:55:42;33.90;66.40
16160;DHT22;8185;57.818;15.224;2023-07-09T14:58:15;34.90;66.60
16160;DHT22;8185;57.818;15.224;2023-07-09T15:00:43;35.30;64.20
16160;DHT22;8185;57.818;15.224;2023-07-09T15:03:15;35.90;64.10
16160;DHT22;8185;57.818;15.224;2023-07-09T15:05:46;36.90;64.40
16160;DHT22;8185;57.818;15.224;2023-07-09T15:08:14;35.90;63.00
16160;DHT22;8185;57.818;15.224;2023-07-09T15:10:42;36.20;61.70
16160;DHT22;8185;57.818;15.224;2023-07-09T15:13:16;36.30;62.20
16160;DHT22;8185;57.818;15.224;2023-07-09T15:15:44;35.90;60.50
16160;DHT22;8185;57.818;15.224;2023-07-09T15:18:14;36.60;62.70
16160;DHT22;8185;57.818;15.224;2023-07-09T15:20:46;38.10;61.70
16160;DHT22;8185;57.818;15.224;2023-07-09T15:23:17;36.10;60.00
16160;DHT22;8185;57.818;15.224;2023-07-09T15:25:48;35.90;60.20
16160;DHT22;8185;57.818;15.224;2023-07-09T15:28:16;37.00;58.90
16160;DHT22;8185;57.818;15.224;2023-07-09T15:30:44;37.10;59.50
16160;DHT22;8185;57.818;15.224;2023-07-09T15:33:14;36.70;59.60
16160;DHT22;8185;57.818;15.224;2023-07-09T15:35:43;35.10;59.00
16160;DHT22;8185;57.818;15.224;2023-07-09T15:38:25;35.20;59.80
16160;DHT22;8185;57.818;15.224;2023-07-09T15:40:55;36.10;58.40
16160;DHT22;8185;57.818;15.224;2023-07-09T15:43:23;36.60;59.20
16160;DHT22;8185;57.818;15.224;2023-07-09T15:45:52;36.70;57.20